createdAt,value
2018-06-13T00:00:04.302Z,3.218688
2018-06-13T00:00:16.723Z,3.218688
2018-06-13T00:00:29.157Z,8.04672
2018-06-13T00:00:41.656Z,6.437376
2018-06-13T00:00:54.223Z,6.437376
2018-06-13T00:01:06.637Z,9.656064
2018-06-13T00:01:19.057Z,8.04672
2018-06-13T00:01:31.450Z,8.04672
2018-06-13T00:01:43.876Z,8.04672
2018-06-13T00:01:56.287Z,6.437376
2018-06-13T00:02:08.700Z,9.656064
2018-06-13T00:02:21.097Z,8.04672
2018-06-13T00:02:33.681Z,6.437376
2018-06-13T00:02:46.109Z,6.437376
2018-06-13T00:02:58.579Z,3.218688
2018-06-13T00:03:11.008Z,3.218688
2018-06-13T00:03:23.417Z,4.828032
2018-06-13T00:03:35.829Z,8.04672
2018-06-13T00:03:48.251Z,6.437376
2018-06-13T00:04:00.643Z,6.437376
2018-06-13T00:04:13.045Z,8.04672
2018-06-13T00:04:25.474Z,9.656064
2018-06-13T00:04:37.900Z,8.04672
2018-06-13T00:04:50.324Z,9.656064
2018-06-13T00:05:02.748Z,8.04672
2018-06-13T00:05:15.148Z,8.04672
2018-06-13T00:05:27.562Z,4.828032
2018-06-13T00:05:39.970Z,8.04672
2018-06-13T00:05:52.376Z,8.04672
2018-06-13T00:06:04.784Z,9.656064
2018-06-13T00:06:17.209Z,9.656064
2018-06-13T00:06:29.625Z,8.04672
2018-06-13T00:06:42.319Z,4.828032
2018-06-13T00:06:54.896Z,8.04672
2018-06-13T00:07:07.307Z,6.437376
2018-06-13T00:07:19.712Z,9.656064
2018-06-13T00:07:32.149Z,8.04672
2018-06-13T00:07:44.561Z,8.04672
2018-06-13T00:07:56.977Z,3.218688
2018-06-13T00:08:09.381Z,3.218688
2018-06-13T00:08:21.800Z,3.218688
2018-06-13T00:08:34.236Z,1.609344
2018-06-13T00:08:46.728Z,0
2018-06-13T00:08:59.190Z,0
2018-06-13T00:09:11.590Z,0
2018-06-13T00:09:24.035Z,1.609344
2018-06-13T00:09:36.431Z,3.218688
2018-06-13T00:09:48.848Z,4.828032
2018-06-13T00:10:01.251Z,8.04672
2018-06-13T00:10:13.649Z,9.656064
2018-06-13T00:10:26.072Z,9.656064
2018-06-13T00:10:38.778Z,6.437376
2018-06-13T00:10:51.231Z,3.218688
2018-06-13T00:11:03.680Z,6.437376
2018-06-13T00:11:16.078Z,8.04672
2018-06-13T00:11:28.476Z,3.218688
2018-06-13T00:11:40.919Z,3.218688
2018-06-13T00:11:53.354Z,8.04672
2018-06-13T00:12:05.829Z,4.828032
2018-06-13T00:12:18.229Z,6.437376
2018-06-13T00:12:30.635Z,3.218688
2018-06-13T00:12:43.041Z,3.218688
2018-06-13T00:12:55.455Z,1.609344
2018-06-13T00:13:08.014Z,4.828032
2018-06-13T00:13:20.576Z,1.609344
2018-06-13T00:13:33.003Z,1.609344
2018-06-13T00:13:45.404Z,1.609344
2018-06-13T00:13:57.988Z,0
2018-06-13T00:14:10.388Z,3.218688
2018-06-13T00:14:22.835Z,4.828032
2018-06-13T00:14:35.305Z,9.656064
2018-06-13T00:14:47.696Z,8.04672
2018-06-13T00:15:00.122Z,8.04672
2018-06-13T00:15:12.539Z,8.04672
2018-06-13T00:15:24.944Z,6.437376
2018-06-13T00:15:37.393Z,8.04672
2018-06-13T00:15:49.783Z,6.437376
2018-06-13T00:16:02.192Z,3.218688
2018-06-13T00:16:14.637Z,1.609344
2018-06-13T00:16:27.140Z,1.609344
2018-06-13T00:16:39.570Z,6.437376
2018-06-13T00:16:51.989Z,3.218688
2018-06-13T00:17:04.435Z,3.218688
2018-06-13T00:17:16.843Z,1.609344
2018-06-13T00:17:29.242Z,1.609344
2018-06-13T00:17:41.650Z,1.609344
2018-06-13T00:17:54.071Z,1.609344
2018-06-13T00:18:06.599Z,1.609344
2018-06-13T00:18:18.992Z,1.609344
2018-06-13T00:18:31.495Z,1.609344
2018-06-13T00:18:44.104Z,8.04672
2018-06-13T00:18:56.518Z,4.828032
2018-06-13T00:19:08.980Z,3.218688
2018-06-13T00:19:21.451Z,1.609344
2018-06-13T00:19:34.007Z,0
2018-06-13T00:19:46.407Z,3.218688
2018-06-13T00:19:58.814Z,1.609344
2018-06-13T00:20:11.375Z,1.609344
2018-06-13T00:20:23.779Z,1.609344
2018-06-13T00:20:36.167Z,0
2018-06-13T00:20:48.573Z,1.609344
2018-06-13T00:21:01.315Z,0
2018-06-13T00:21:13.728Z,1.609344
2018-06-13T00:21:26.121Z,0
2018-06-13T00:21:38.522Z,0
2018-06-13T00:21:50.941Z,1.609344
2018-06-13T00:22:03.330Z,3.218688
2018-06-13T00:22:15.744Z,3.218688
2018-06-13T00:22:28.156Z,3.218688
2018-06-13T00:22:40.559Z,6.437376
2018-06-13T00:22:53.009Z,8.04672
2018-06-13T00:23:05.570Z,6.437376
2018-06-13T00:23:18.024Z,6.437376
2018-06-13T00:23:30.456Z,3.218688
2018-06-13T00:23:42.893Z,6.437376
2018-06-13T00:23:55.298Z,6.437376
2018-06-13T00:24:07.709Z,3.218688
2018-06-13T00:24:20.223Z,3.218688
2018-06-13T00:24:32.639Z,3.218688
2018-06-13T00:24:45.213Z,3.218688
2018-06-13T00:24:57.621Z,8.04672
2018-06-13T00:25:10.028Z,9.656064
2018-06-13T00:25:22.733Z,9.656064
2018-06-13T00:25:35.124Z,4.828032
2018-06-13T00:25:47.536Z,3.218688
2018-06-13T00:25:59.935Z,1.609344
2018-06-13T00:26:12.374Z,6.437376
2018-06-13T00:26:24.813Z,3.218688
2018-06-13T00:26:37.228Z,1.609344
2018-06-13T00:26:49.633Z,1.609344
2018-06-13T00:27:02.067Z,6.437376
2018-06-13T00:27:14.495Z,1.609344
2018-06-13T00:27:26.902Z,1.609344
2018-06-13T00:27:39.386Z,6.437376
2018-06-13T00:27:51.791Z,6.437376
2018-06-13T00:28:04.192Z,6.437376
2018-06-13T00:28:16.608Z,8.04672
2018-06-13T00:28:29.130Z,6.437376
2018-06-13T00:28:41.862Z,6.437376
2018-06-13T00:28:54.289Z,6.437376
2018-06-13T00:29:06.690Z,6.437376
2018-06-13T00:29:19.088Z,6.437376
2018-06-13T00:29:31.502Z,3.218688
2018-06-13T00:29:43.910Z,1.609344
2018-06-13T00:29:56.308Z,1.609344
2018-06-13T00:30:08.736Z,3.218688
2018-06-13T00:30:21.134Z,3.218688
2018-06-13T00:30:33.578Z,3.218688
2018-06-13T00:30:45.991Z,3.218688
2018-06-13T00:30:58.389Z,6.437376
2018-06-13T00:31:10.804Z,6.437376
2018-06-13T00:31:23.216Z,3.218688
2018-06-13T00:31:35.617Z,1.609344
2018-06-13T00:31:48.035Z,3.218688
2018-06-13T00:32:00.451Z,6.437376
2018-06-13T00:32:12.858Z,3.218688
2018-06-13T00:32:25.334Z,8.04672
2018-06-13T00:32:38.050Z,9.656064
2018-06-13T00:32:50.570Z,8.04672
2018-06-13T00:33:02.969Z,8.04672
2018-06-13T00:33:15.647Z,6.437376
2018-06-13T00:33:28.106Z,6.437376
2018-06-13T00:33:40.681Z,3.218688
2018-06-13T00:33:53.109Z,0
2018-06-13T00:34:05.525Z,1.609344
2018-06-13T00:34:17.985Z,1.609344
2018-06-13T00:34:30.384Z,8.04672
2018-06-13T00:34:43.056Z,8.04672
2018-06-13T00:34:55.483Z,6.437376
2018-06-13T00:35:08.127Z,6.437376
2018-06-13T00:35:20.537Z,3.218688
2018-06-13T00:35:32.930Z,3.218688
2018-06-13T00:35:45.339Z,3.218688
2018-06-13T00:35:57.741Z,6.437376
2018-06-13T00:36:10.164Z,11.265408
2018-06-13T00:36:22.595Z,9.656064
2018-06-13T00:36:35.001Z,9.656064
2018-06-13T00:36:47.574Z,8.04672
2018-06-13T00:37:00.720Z,6.437376
2018-06-13T00:37:13.779Z,8.04672
2018-06-13T00:37:26.183Z,6.437376
2018-06-13T00:37:38.622Z,6.437376
2018-06-13T00:37:51.022Z,6.437376
2018-06-13T00:38:03.437Z,6.437376
2018-06-13T00:38:15.858Z,6.437376
2018-06-13T00:38:28.266Z,8.04672
2018-06-13T00:38:40.662Z,9.656064
2018-06-13T00:38:53.067Z,8.04672
2018-06-13T00:39:05.472Z,6.437376
2018-06-13T00:39:17.927Z,6.437376
2018-06-13T00:39:30.343Z,1.609344
2018-06-13T00:39:42.763Z,8.04672
2018-06-13T00:39:55.161Z,6.437376
2018-06-13T00:40:07.595Z,3.218688
2018-06-13T00:40:20.004Z,6.437376
2018-06-13T00:40:32.427Z,8.04672
2018-06-13T00:40:44.816Z,6.437376
2018-06-13T00:40:57.284Z,6.437376
2018-06-13T00:41:09.704Z,6.437376
2018-06-13T00:41:22.112Z,6.437376
2018-06-13T00:41:34.542Z,8.04672
2018-06-13T00:41:46.953Z,9.656064
2018-06-13T00:41:59.364Z,6.437376
2018-06-13T00:42:11.768Z,8.04672
2018-06-13T00:42:24.177Z,8.04672
2018-06-13T00:42:36.594Z,9.656064
2018-06-13T00:42:49.028Z,9.656064
2018-06-13T00:43:01.460Z,14.484096
2018-06-13T00:43:13.894Z,11.265408
2018-06-13T00:43:26.326Z,14.484096
2018-06-13T00:43:38.757Z,9.656064
2018-06-13T00:43:51.186Z,9.656064
2018-06-13T00:44:03.647Z,12.874752
2018-06-13T00:44:16.085Z,9.656064
2018-06-13T00:44:28.511Z,11.265408
2018-06-13T00:44:40.972Z,9.656064
2018-06-13T00:44:53.380Z,6.437376
2018-06-13T00:45:05.779Z,8.04672
2018-06-13T00:45:18.182Z,8.04672
2018-06-13T00:45:30.587Z,6.437376
2018-06-13T00:45:42.997Z,6.437376
2018-06-13T00:45:55.510Z,1.609344
2018-06-13T00:46:07.958Z,8.04672
2018-06-13T00:46:20.413Z,9.656064
2018-06-13T00:46:32.979Z,11.265408
2018-06-13T00:46:45.405Z,12.874752
2018-06-13T00:46:57.806Z,8.04672
2018-06-13T00:47:10.495Z,9.656064
2018-06-13T00:47:22.899Z,8.04672
2018-06-13T00:47:35.355Z,6.437376
2018-06-13T00:47:47.779Z,9.656064
2018-06-13T00:48:00.172Z,11.265408
2018-06-13T00:48:12.607Z,16.09344
2018-06-13T00:48:25.034Z,11.265408
2018-06-13T00:48:37.572Z,6.437376
2018-06-13T00:48:49.994Z,9.656064
2018-06-13T00:49:02.415Z,12.874752
2018-06-13T00:49:14.842Z,6.437376
2018-06-13T00:49:27.255Z,4.828032
2018-06-13T00:49:39.648Z,4.828032
2018-06-13T00:49:52.039Z,3.218688
2018-06-13T00:50:04.469Z,1.609344
2018-06-13T00:50:16.898Z,4.828032
2018-06-13T00:50:29.460Z,8.04672
2018-06-13T00:50:42.098Z,11.265408
2018-06-13T00:50:54.514Z,8.04672
2018-06-13T00:51:07.000Z,4.828032
2018-06-13T00:51:19.401Z,12.874752
2018-06-13T00:51:31.808Z,8.04672
2018-06-13T00:51:44.222Z,9.656064
2018-06-13T00:51:56.676Z,8.04672
2018-06-13T00:52:09.096Z,8.04672
2018-06-13T00:52:21.524Z,8.04672
2018-06-13T00:52:33.942Z,6.437376
2018-06-13T00:52:46.371Z,4.828032
2018-06-13T00:52:58.763Z,4.828032
2018-06-13T00:53:11.168Z,3.218688
2018-06-13T00:53:23.567Z,6.437376
2018-06-13T00:53:36.008Z,11.265408
2018-06-13T00:53:48.427Z,12.874752
2018-06-13T00:54:00.821Z,12.874752
2018-06-13T00:54:13.277Z,8.04672
2018-06-13T00:54:25.671Z,6.437376
2018-06-13T00:54:38.107Z,8.04672
2018-06-13T00:54:50.529Z,8.04672
2018-06-13T00:55:02.955Z,8.04672
2018-06-13T00:55:15.356Z,11.265408
2018-06-13T00:55:27.776Z,9.656064
2018-06-13T00:55:40.178Z,9.656064
2018-06-13T00:55:52.587Z,8.04672
2018-06-13T00:56:05.038Z,6.437376
2018-06-13T00:56:17.444Z,6.437376
2018-06-13T00:56:29.867Z,6.437376
2018-06-13T00:56:42.337Z,8.04672
2018-06-13T00:56:54.771Z,6.437376
2018-06-13T00:57:07.203Z,6.437376
2018-06-13T00:57:19.617Z,4.828032
2018-06-13T00:57:32.022Z,6.437376
2018-06-13T00:57:44.420Z,6.437376
2018-06-13T00:57:56.840Z,8.04672
2018-06-13T00:58:09.316Z,6.437376
2018-06-13T00:58:21.711Z,6.437376
2018-06-13T00:58:34.152Z,4.828032
2018-06-13T00:58:46.563Z,6.437376
2018-06-13T00:58:58.985Z,3.218688
2018-06-13T00:59:11.409Z,3.218688
2018-06-13T00:59:23.811Z,3.218688
2018-06-13T00:59:36.260Z,9.656064
2018-06-13T00:59:48.665Z,11.265408
2018-06-13T01:00:01.075Z,9.656064
2018-06-13T01:00:13.490Z,9.656064
2018-06-13T01:00:25.942Z,11.265408
2018-06-13T01:00:38.361Z,9.656064
2018-06-13T01:00:50.789Z,6.437376
2018-06-13T01:01:03.373Z,8.04672
2018-06-13T01:01:15.808Z,8.04672
2018-06-13T01:01:28.305Z,9.656064
2018-06-13T01:01:40.735Z,8.04672
2018-06-13T01:01:53.147Z,9.656064
2018-06-13T01:02:05.576Z,4.828032
2018-06-13T01:02:17.997Z,6.437376
2018-06-13T01:02:30.796Z,9.656064
2018-06-13T01:02:43.223Z,11.265408
2018-06-13T01:02:55.641Z,11.265408
2018-06-13T01:03:08.054Z,9.656064
2018-06-13T01:03:20.461Z,6.437376
2018-06-13T01:03:32.871Z,8.04672
2018-06-13T01:03:45.280Z,11.265408
2018-06-13T01:03:57.701Z,6.437376
2018-06-13T01:04:10.181Z,9.656064
2018-06-13T01:04:22.597Z,9.656064
2018-06-13T01:04:35.008Z,11.265408
2018-06-13T01:04:47.445Z,9.656064
2018-06-13T01:04:59.879Z,11.265408
2018-06-13T01:05:12.301Z,12.874752
2018-06-13T01:05:24.706Z,11.265408
2018-06-13T01:05:37.279Z,9.656064
2018-06-13T01:05:49.767Z,12.874752
2018-06-13T01:06:02.197Z,6.437376
2018-06-13T01:06:14.604Z,11.265408
2018-06-13T01:06:27.018Z,11.265408
2018-06-13T01:06:39.426Z,9.656064
2018-06-13T01:06:52.007Z,9.656064
2018-06-13T01:07:04.416Z,11.265408
2018-06-13T01:07:16.836Z,6.437376
2018-06-13T01:07:29.257Z,8.04672
2018-06-13T01:07:41.667Z,8.04672
2018-06-13T01:07:54.136Z,9.656064
2018-06-13T01:08:06.559Z,14.484096
2018-06-13T01:08:18.997Z,17.702784
2018-06-13T01:08:31.608Z,12.874752
2018-06-13T01:08:44.020Z,12.874752
2018-06-13T01:08:56.420Z,8.04672
2018-06-13T01:09:08.803Z,4.828032
2018-06-13T01:09:21.198Z,9.656064
2018-06-13T01:09:33.599Z,9.656064
2018-06-13T01:09:45.999Z,3.218688
2018-06-13T01:09:58.438Z,9.656064
2018-06-13T01:10:10.877Z,8.04672
2018-06-13T01:10:23.313Z,12.874752
2018-06-13T01:10:35.709Z,8.04672
2018-06-13T01:10:48.122Z,11.265408
2018-06-13T01:11:00.533Z,6.437376
2018-06-13T01:11:13.093Z,9.656064
2018-06-13T01:11:25.514Z,8.04672
2018-06-13T01:11:37.912Z,8.04672
2018-06-13T01:11:50.315Z,9.656064
2018-06-13T01:12:02.729Z,8.04672
2018-06-13T01:12:15.152Z,9.656064
2018-06-13T01:12:27.563Z,11.265408
2018-06-13T01:12:39.989Z,11.265408
2018-06-13T01:12:52.403Z,8.04672
2018-06-13T01:13:04.799Z,8.04672
2018-06-13T01:13:17.180Z,8.04672
2018-06-13T01:13:29.613Z,6.437376
2018-06-13T01:13:42.022Z,6.437376
2018-06-13T01:13:54.423Z,9.656064
2018-06-13T01:14:06.852Z,11.265408
2018-06-13T01:14:19.363Z,11.265408
2018-06-13T01:14:31.815Z,12.874752
2018-06-13T01:14:44.280Z,11.265408
2018-06-13T01:14:56.697Z,9.656064
2018-06-13T01:15:09.136Z,9.656064
2018-06-13T01:15:21.559Z,9.656064
2018-06-13T01:15:33.953Z,8.04672
2018-06-13T01:15:46.371Z,9.656064
2018-06-13T01:15:58.778Z,8.04672
2018-06-13T01:16:11.233Z,9.656064
2018-06-13T01:16:23.649Z,6.437376
2018-06-13T01:16:36.048Z,8.04672
2018-06-13T01:16:48.456Z,8.04672
2018-06-13T01:17:00.873Z,3.218688
2018-06-13T01:17:13.299Z,3.218688
2018-06-13T01:17:25.752Z,6.437376
2018-06-13T01:17:38.176Z,8.04672
2018-06-13T01:17:50.573Z,8.04672
2018-06-13T01:18:03.161Z,6.437376
2018-06-13T01:18:15.628Z,8.04672
2018-06-13T01:18:28.065Z,12.874752
2018-06-13T01:18:40.478Z,9.656064
2018-06-13T01:18:52.904Z,9.656064
2018-06-13T01:19:05.302Z,9.656064
2018-06-13T01:19:17.792Z,9.656064
2018-06-13T01:19:30.187Z,9.656064
2018-06-13T01:19:42.593Z,11.265408
2018-06-13T01:19:55.014Z,6.437376
2018-06-13T01:20:07.435Z,9.656064
2018-06-13T01:20:19.836Z,8.04672
2018-06-13T01:20:32.276Z,8.04672
2018-06-13T01:20:44.700Z,6.437376
2018-06-13T01:20:57.231Z,4.828032
2018-06-13T01:21:09.742Z,6.437376
2018-06-13T01:21:22.170Z,6.437376
2018-06-13T01:21:34.577Z,9.656064
2018-06-13T01:21:47.040Z,11.265408
2018-06-13T01:21:59.470Z,11.265408
2018-06-13T01:22:11.880Z,14.484096
2018-06-13T01:22:24.280Z,12.874752
2018-06-13T01:22:36.707Z,11.265408
2018-06-13T01:22:49.121Z,12.874752
2018-06-13T01:23:01.540Z,11.265408
2018-06-13T01:23:13.947Z,11.265408
2018-06-13T01:23:26.361Z,12.874752
2018-06-13T01:23:38.776Z,17.702784
2018-06-13T01:23:51.204Z,11.265408
2018-06-13T01:24:03.619Z,11.265408
2018-06-13T01:24:16.049Z,12.874752
2018-06-13T01:24:28.558Z,9.656064
2018-06-13T01:24:40.993Z,6.437376
2018-06-13T01:24:53.424Z,8.04672
2018-06-13T01:25:05.848Z,4.828032
2018-06-13T01:25:18.476Z,11.265408
2018-06-13T01:25:31.064Z,12.874752
2018-06-13T01:25:43.634Z,8.04672
2018-06-13T01:25:56.077Z,3.218688
2018-06-13T01:26:08.509Z,6.437376
2018-06-13T01:26:20.926Z,6.437376
2018-06-13T01:26:33.410Z,16.09344
2018-06-13T01:26:45.811Z,12.874752
2018-06-13T01:26:58.202Z,12.874752
2018-06-13T01:27:10.648Z,11.265408
2018-06-13T01:27:23.097Z,9.656064
2018-06-13T01:27:35.488Z,11.265408
2018-06-13T01:27:47.918Z,16.09344
2018-06-13T01:28:00.365Z,9.656064
2018-06-13T01:28:12.851Z,12.874752
2018-06-13T01:28:25.251Z,12.874752
2018-06-13T01:28:37.668Z,19.312128
2018-06-13T01:28:50.070Z,12.874752
2018-06-13T01:29:02.489Z,11.265408
2018-06-13T01:29:15.279Z,12.874752
2018-06-13T01:29:28.333Z,11.265408
2018-06-13T01:29:40.754Z,11.265408
2018-06-13T01:29:53.160Z,16.09344
2018-06-13T01:30:05.567Z,9.656064
2018-06-13T01:30:17.978Z,8.04672
2018-06-13T01:30:30.398Z,9.656064
2018-06-13T01:30:42.832Z,8.04672
2018-06-13T01:30:55.254Z,9.656064
2018-06-13T01:31:07.665Z,9.656064
2018-06-13T01:31:20.100Z,12.874752
2018-06-13T01:31:32.522Z,9.656064
2018-06-13T01:31:44.932Z,12.874752
2018-06-13T01:31:57.333Z,12.874752
2018-06-13T01:32:09.755Z,8.04672
2018-06-13T01:32:22.217Z,9.656064
2018-06-13T01:32:34.737Z,11.265408
2018-06-13T01:32:47.136Z,14.484096
2018-06-13T01:32:59.548Z,14.484096
2018-06-13T01:33:11.947Z,11.265408
2018-06-13T01:33:24.375Z,14.484096
2018-06-13T01:33:36.785Z,11.265408
2018-06-13T01:33:49.250Z,14.484096
2018-06-13T01:34:01.655Z,16.09344
2018-06-13T01:34:14.067Z,12.874752
2018-06-13T01:34:26.585Z,12.874752
2018-06-13T01:34:39.139Z,16.09344
2018-06-13T01:34:51.548Z,12.874752
2018-06-13T01:35:03.958Z,9.656064
2018-06-13T01:35:16.370Z,9.656064
2018-06-13T01:35:28.779Z,9.656064
2018-06-13T01:35:41.193Z,14.484096
2018-06-13T01:35:53.614Z,12.874752
2018-06-13T01:36:06.135Z,9.656064
2018-06-13T01:36:18.538Z,16.09344
2018-06-13T01:36:30.959Z,12.874752
2018-06-13T01:36:43.371Z,12.874752
2018-06-13T01:36:55.829Z,14.484096
2018-06-13T01:37:08.282Z,12.874752
2018-06-13T01:37:20.688Z,8.04672
2018-06-13T01:37:33.099Z,14.484096
2018-06-13T01:37:45.527Z,11.265408
2018-06-13T01:37:57.944Z,8.04672
2018-06-13T01:38:10.373Z,9.656064
2018-06-13T01:38:22.782Z,9.656064
2018-06-13T01:38:35.191Z,12.874752
2018-06-13T01:38:47.599Z,14.484096
2018-06-13T01:39:00.061Z,14.484096
2018-06-13T01:39:12.484Z,14.484096
2018-06-13T01:39:24.890Z,11.265408
2018-06-13T01:39:37.374Z,6.437376
2018-06-13T01:39:49.793Z,6.437376
2018-06-13T01:40:02.213Z,9.656064
2018-06-13T01:40:14.642Z,12.874752
2018-06-13T01:40:27.068Z,8.04672
2018-06-13T01:40:39.474Z,12.874752
2018-06-13T01:40:51.890Z,9.656064
2018-06-13T01:41:04.310Z,12.874752
2018-06-13T01:41:16.726Z,9.656064
2018-06-13T01:41:29.156Z,11.265408
2018-06-13T01:41:41.622Z,8.04672
2018-06-13T01:41:54.038Z,6.437376
2018-06-13T01:42:06.480Z,11.265408
2018-06-13T01:42:18.884Z,14.484096
2018-06-13T01:42:31.298Z,9.656064
2018-06-13T01:42:43.714Z,12.874752
2018-06-13T01:42:56.161Z,12.874752
2018-06-13T01:43:08.574Z,9.656064
2018-06-13T01:43:20.989Z,8.04672
2018-06-13T01:43:33.403Z,6.437376
2018-06-13T01:43:45.819Z,9.656064
2018-06-13T01:43:58.241Z,14.484096
2018-06-13T01:44:10.644Z,11.265408
2018-06-13T01:44:23.093Z,14.484096
2018-06-13T01:44:35.540Z,6.437376
2018-06-13T01:44:47.955Z,11.265408
2018-06-13T01:45:00.532Z,6.437376
2018-06-13T01:45:12.945Z,3.218688
2018-06-13T01:45:25.355Z,1.609344
2018-06-13T01:45:37.794Z,4.828032
2018-06-13T01:45:50.209Z,3.218688
2018-06-13T01:46:02.761Z,12.874752
2018-06-13T01:46:15.194Z,14.484096
2018-06-13T01:46:27.631Z,8.04672
2018-06-13T01:46:40.035Z,11.265408
2018-06-13T01:46:52.439Z,9.656064
2018-06-13T01:47:04.909Z,11.265408
2018-06-13T01:47:17.340Z,12.874752
2018-06-13T01:47:29.764Z,11.265408
2018-06-13T01:47:42.202Z,11.265408
2018-06-13T01:47:54.609Z,12.874752
2018-06-13T01:48:07.022Z,8.04672
2018-06-13T01:48:19.422Z,6.437376
2018-06-13T01:48:32.000Z,9.656064
2018-06-13T01:48:44.399Z,6.437376
2018-06-13T01:48:56.819Z,6.437376
2018-06-13T01:49:09.220Z,3.218688
2018-06-13T01:49:21.637Z,11.265408
2018-06-13T01:49:34.085Z,9.656064
2018-06-13T01:49:46.499Z,6.437376
2018-06-13T01:49:58.915Z,6.437376
2018-06-13T01:50:11.385Z,8.04672
2018-06-13T01:50:23.801Z,6.437376
2018-06-13T01:50:36.215Z,4.828032
2018-06-13T01:50:48.622Z,3.218688
2018-06-13T01:51:01.028Z,8.04672
2018-06-13T01:51:13.469Z,9.656064
2018-06-13T01:51:25.879Z,12.874752
2018-06-13T01:51:38.370Z,12.874752
2018-06-13T01:51:50.771Z,19.312128
2018-06-13T01:52:03.170Z,12.874752
2018-06-13T01:52:15.570Z,9.656064
2018-06-13T01:52:27.968Z,11.265408
2018-06-13T01:52:40.364Z,11.265408
2018-06-13T01:52:52.778Z,11.265408
2018-06-13T01:53:05.211Z,8.04672
2018-06-13T01:53:17.660Z,12.874752
2018-06-13T01:53:30.089Z,8.04672
2018-06-13T01:53:42.537Z,14.484096
2018-06-13T01:53:55.002Z,12.874752
2018-06-13T01:54:07.412Z,14.484096
2018-06-13T01:54:19.817Z,12.874752
2018-06-13T01:54:32.225Z,14.484096
2018-06-13T01:54:44.644Z,9.656064
2018-06-13T01:54:57.075Z,12.874752
2018-06-13T01:55:09.515Z,9.656064
2018-06-13T01:55:21.919Z,9.656064
2018-06-13T01:55:34.348Z,8.04672
2018-06-13T01:55:46.744Z,11.265408
2018-06-13T01:55:59.166Z,11.265408
2018-06-13T01:56:11.582Z,6.437376
2018-06-13T01:56:23.991Z,16.09344
2018-06-13T01:56:36.398Z,12.874752
2018-06-13T01:56:48.813Z,14.484096
2018-06-13T01:57:01.213Z,9.656064
2018-06-13T01:57:13.643Z,12.874752
2018-06-13T01:57:26.057Z,11.265408
2018-06-13T01:57:38.446Z,9.656064
2018-06-13T01:57:50.856Z,11.265408
2018-06-13T01:58:03.295Z,12.874752
2018-06-13T01:58:15.715Z,12.874752
2018-06-13T01:58:28.130Z,11.265408
2018-06-13T01:58:40.574Z,11.265408
2018-06-13T01:58:52.986Z,9.656064
2018-06-13T01:59:05.390Z,9.656064
2018-06-13T01:59:17.785Z,11.265408
2018-06-13T01:59:30.324Z,11.265408
2018-06-13T01:59:42.760Z,8.04672
2018-06-13T01:59:55.161Z,6.437376
2018-06-13T02:00:07.590Z,9.656064
2018-06-13T02:00:20.099Z,12.874752
2018-06-13T02:00:32.535Z,11.265408
2018-06-13T02:00:44.993Z,9.656064
2018-06-13T02:00:57.539Z,14.484096
2018-06-13T02:01:09.947Z,8.04672
2018-06-13T02:01:22.383Z,16.09344
2018-06-13T02:01:34.815Z,16.09344
2018-06-13T02:01:47.390Z,12.874752
2018-06-13T02:01:59.827Z,11.265408
2018-06-13T02:02:12.279Z,11.265408
2018-06-13T02:02:24.696Z,9.656064
2018-06-13T02:02:37.272Z,12.874752
2018-06-13T02:02:49.669Z,14.484096
2018-06-13T02:03:02.120Z,8.04672
2018-06-13T02:03:14.547Z,12.874752
2018-06-13T02:03:26.939Z,9.656064
2018-06-13T02:03:39.363Z,14.484096
2018-06-13T02:03:51.775Z,12.874752
2018-06-13T02:04:04.218Z,16.09344
2018-06-13T02:04:16.640Z,12.874752
2018-06-13T02:04:29.080Z,11.265408
2018-06-13T02:04:41.483Z,8.04672
2018-06-13T02:04:53.872Z,8.04672
2018-06-13T02:05:06.275Z,8.04672
2018-06-13T02:05:18.686Z,8.04672
2018-06-13T02:05:31.099Z,8.04672
2018-06-13T02:05:43.538Z,8.04672
2018-06-13T02:05:55.932Z,9.656064
2018-06-13T02:06:08.490Z,6.437376
2018-06-13T02:06:20.912Z,14.484096
2018-06-13T02:06:33.327Z,8.04672
2018-06-13T02:06:45.878Z,9.656064
2018-06-13T02:06:58.273Z,9.656064
2018-06-13T02:07:10.881Z,11.265408
2018-06-13T02:07:23.307Z,9.656064
2018-06-13T02:07:35.727Z,3.218688
2018-06-13T02:07:48.125Z,9.656064
2018-06-13T02:08:00.564Z,8.04672
2018-06-13T02:08:12.974Z,8.04672
2018-06-13T02:08:25.386Z,9.656064
2018-06-13T02:08:37.785Z,11.265408
2018-06-13T02:08:50.214Z,11.265408
2018-06-13T02:09:02.603Z,9.656064
2018-06-13T02:09:15.017Z,9.656064
2018-06-13T02:09:27.423Z,11.265408
2018-06-13T02:09:39.840Z,14.484096
2018-06-13T02:09:52.233Z,12.874752
2018-06-13T02:10:04.663Z,11.265408
2018-06-13T02:10:17.060Z,9.656064
2018-06-13T02:10:29.461Z,11.265408
2018-06-13T02:10:41.866Z,11.265408
2018-06-13T02:10:54.251Z,4.828032
2018-06-13T02:11:06.697Z,8.04672
2018-06-13T02:11:19.117Z,6.437376
2018-06-13T02:11:31.522Z,1.609344
2018-06-13T02:11:43.909Z,1.609344
2018-06-13T02:11:56.434Z,1.609344
2018-06-13T02:12:08.879Z,1.609344
2018-06-13T02:12:21.280Z,8.04672
2018-06-13T02:12:33.679Z,9.656064
2018-06-13T02:12:46.108Z,9.656064
2018-06-13T02:12:58.515Z,8.04672
2018-06-13T02:13:10.913Z,8.04672
2018-06-13T02:13:23.325Z,6.437376
2018-06-13T02:13:35.725Z,3.218688
2018-06-13T02:13:48.118Z,6.437376
2018-06-13T02:14:00.530Z,11.265408
2018-06-13T02:14:12.920Z,8.04672
2018-06-13T02:14:25.337Z,9.656064
2018-06-13T02:14:37.732Z,9.656064
2018-06-13T02:14:50.134Z,11.265408
2018-06-13T02:15:02.527Z,12.874752
2018-06-13T02:15:15.203Z,11.265408
2018-06-13T02:15:27.617Z,14.484096
2018-06-13T02:15:40.003Z,11.265408
2018-06-13T02:15:52.397Z,11.265408
2018-06-13T02:16:04.799Z,8.04672
2018-06-13T02:16:17.238Z,8.04672
2018-06-13T02:16:29.656Z,16.09344
2018-06-13T02:16:42.061Z,12.874752
2018-06-13T02:16:54.496Z,9.656064
2018-06-13T02:17:06.894Z,11.265408
2018-06-13T02:17:19.305Z,8.04672
2018-06-13T02:17:31.760Z,8.04672
2018-06-13T02:17:44.159Z,11.265408
2018-06-13T02:17:56.681Z,8.04672
2018-06-13T02:18:09.075Z,4.828032
2018-06-13T02:18:21.478Z,8.04672
2018-06-13T02:18:33.935Z,8.04672
2018-06-13T02:18:46.345Z,8.04672
2018-06-13T02:18:58.748Z,11.265408
2018-06-13T02:19:11.151Z,4.828032
2018-06-13T02:19:23.627Z,9.656064
2018-06-13T02:19:36.180Z,9.656064
2018-06-13T02:19:48.591Z,8.04672
2018-06-13T02:20:01.014Z,9.656064
2018-06-13T02:20:13.416Z,12.874752
2018-06-13T02:20:25.856Z,14.484096
2018-06-13T02:20:38.239Z,9.656064
2018-06-13T02:20:50.661Z,9.656064
2018-06-13T02:21:03.305Z,11.265408
2018-06-13T02:21:15.722Z,8.04672
2018-06-13T02:21:28.150Z,12.874752
2018-06-13T02:21:40.739Z,14.484096
2018-06-13T02:21:53.495Z,8.04672
2018-06-13T02:22:06.095Z,11.265408
2018-06-13T02:22:18.487Z,11.265408
2018-06-13T02:22:30.892Z,8.04672
2018-06-13T02:22:43.289Z,6.437376
2018-06-13T02:22:55.913Z,4.828032
2018-06-13T02:23:08.338Z,4.828032
2018-06-13T02:23:20.749Z,1.609344
2018-06-13T02:23:33.152Z,3.218688
2018-06-13T02:23:45.558Z,4.828032
2018-06-13T02:23:57.987Z,3.218688
2018-06-13T02:24:10.400Z,4.828032
2018-06-13T02:24:22.838Z,4.828032
2018-06-13T02:24:35.247Z,4.828032
2018-06-13T02:24:47.697Z,6.437376
2018-06-13T02:25:00.117Z,4.828032
2018-06-13T02:25:12.525Z,3.218688
2018-06-13T02:25:25.067Z,8.04672
2018-06-13T02:25:37.492Z,14.484096
2018-06-13T02:25:49.888Z,11.265408
2018-06-13T02:26:02.315Z,12.874752